createdAt,value
2018-11-27T00:00:39.737Z,37.55
2018-11-27T00:03:08.614Z,41.83
2018-11-27T00:05:37.769Z,43.58
2018-11-27T00:08:06.588Z,44.75
2018-11-27T00:10:55.070Z,48.95
2018-11-27T00:13:23.136Z,42.75
2018-11-27T00:15:51.206Z,40.48
2018-11-27T00:18:19.354Z,43.85
2018-11-27T00:20:47.419Z,54.35
2018-11-27T00:23:15.628Z,46.60
2018-11-27T00:25:43.684Z,44.15
2018-11-27T00:28:11.735Z,53.02
2018-11-27T00:30:40.123Z,45.90
2018-11-27T00:33:08.204Z,43.98
2018-11-27T00:35:36.695Z,45.83
2018-11-27T00:38:04.806Z,49.55
2018-11-27T00:40:33.103Z,60.95
2018-11-27T00:43:01.370Z,43.90
2018-11-27T00:45:29.339Z,36.80
2018-11-27T00:47:57.410Z,48.83
2018-11-27T00:50:25.783Z,56.75
2018-11-27T00:52:54.374Z,60.05
2018-11-27T00:55:22.566Z,45.52
2018-11-27T00:57:51.662Z,54.40
2018-11-27T01:00:39.180Z,55.50
2018-11-27T01:03:26.762Z,46.05
2018-11-27T01:05:54.894Z,58.23
2018-11-27T01:08:23.169Z,40.80
2018-11-27T01:10:51.682Z,53.87
2018-11-27T01:13:19.759Z,42.85
2018-11-27T01:15:48.084Z,55.98
2018-11-27T01:18:16.137Z,48.87
2018-11-27T01:21:03.646Z,47.10
2018-11-27T01:23:31.710Z,48.63
2018-11-27T01:25:59.756Z,41.40
2018-11-27T01:28:27.845Z,62.35
2018-11-27T01:30:55.900Z,48.55
2018-11-27T01:33:23.966Z,42.58
2018-11-27T01:35:52.035Z,56.92
2018-11-27T01:38:20.111Z,48.45
2018-11-27T01:40:48.190Z,45.28
2018-11-27T01:43:16.262Z,43.60
2018-11-27T01:45:44.347Z,41.08
2018-11-27T01:48:12.393Z,43.87
2018-11-27T01:50:40.441Z,46.08
2018-11-27T01:53:08.516Z,44.42
2018-11-27T01:55:36.570Z,47.25
2018-11-27T01:58:04.642Z,47.33
2018-11-27T02:00:32.697Z,46.20
2018-11-27T02:03:01.470Z,50.70
2018-11-27T02:05:30.148Z,43.55
2018-11-27T02:07:58.678Z,41.50
2018-11-27T02:10:26.785Z,41.25
2018-11-27T02:13:00.947Z,40.03
2018-11-27T02:15:24.711Z,44.23
2018-11-27T02:17:52.855Z,36.10
2018-11-27T02:20:20.948Z,30.92
2018-11-27T02:22:49.400Z,41.35
2018-11-27T02:25:36.966Z,43.83
2018-11-27T02:28:05.471Z,44.83
2018-11-27T02:30:33.535Z,43.20
2018-11-27T02:33:01.566Z,47.10
2018-11-27T02:35:29.605Z,47.15
2018-11-27T02:37:58.553Z,41.15
2018-11-27T02:40:26.767Z,36.88
2018-11-27T02:42:55.210Z,46.75
2018-11-27T02:45:24.391Z,51.65
2018-11-27T02:47:53.298Z,32.90
2018-11-27T02:50:22.276Z,38.05
2018-11-27T02:52:50.360Z,33.98
2018-11-27T02:55:19.581Z,35.43
2018-11-27T02:57:47.649Z,44.77
2018-11-27T03:00:19.755Z,36.95
2018-11-27T03:02:47.839Z,40.73
2018-11-27T03:05:17.325Z,39.67
2018-11-27T03:07:45.410Z,34.75
2018-11-27T03:10:14.241Z,38.63
2018-11-27T03:12:42.579Z,37.60
2018-11-27T03:15:30.171Z,37.10
2018-11-27T03:17:58.315Z,38.05
2018-11-27T03:20:26.402Z,56.20
2018-11-27T03:22:54.520Z,38.08
2018-11-27T03:25:23.166Z,34.88
2018-11-27T03:27:52.892Z,40.23
2018-11-27T03:30:25.174Z,39.90
2018-11-27T03:32:53.263Z,42.67
2018-11-27T03:35:40.784Z,35.70
2018-11-27T03:38:08.850Z,30.92
2018-11-27T03:40:36.906Z,41.30
2018-11-27T03:43:05.028Z,45.80
2018-11-27T03:45:33.329Z,37.58
2018-11-27T03:48:01.700Z,33.73
2018-11-27T03:50:31.102Z,47.45
2018-11-27T03:52:59.187Z,39.15
2018-11-27T03:55:27.265Z,38.30
2018-11-27T03:57:55.383Z,26.60
2018-11-27T04:00:25.534Z,41.40
2018-11-27T04:03:16.602Z,43.20
2018-11-27T04:05:44.667Z,45.23
2018-11-27T04:08:13.109Z,44.63
2018-11-27T04:10:41.691Z,32.15
2018-11-27T04:13:09.785Z,46.13
2018-11-27T04:15:37.868Z,38.00
2018-11-27T04:18:05.946Z,42.88
2018-11-27T04:20:34.009Z,32.20
2018-11-27T04:23:02.156Z,41.13
2018-11-27T04:25:30.204Z,35.70
2018-11-27T04:27:58.671Z,38.95
2018-11-27T04:30:26.721Z,40.28
2018-11-27T04:32:54.798Z,41.40
2018-11-27T04:35:23.228Z,40.43
2018-11-27T04:37:51.320Z,43.30
2018-11-27T04:40:20.330Z,49.03
2018-11-27T04:42:48.389Z,40.28
2018-11-27T04:45:21.125Z,49.27
2018-11-27T04:47:49.200Z,39.98
2018-11-27T04:50:17.926Z,42.85
2018-11-27T04:52:46.092Z,43.83
2018-11-27T04:55:36.859Z,43.92
2018-11-27T04:58:04.980Z,47.75
2018-11-27T05:00:33.460Z,44.55
2018-11-27T05:03:01.565Z,37.40
2018-11-27T05:05:29.645Z,39.85
2018-11-27T05:07:57.719Z,41.98
2018-11-27T05:10:25.811Z,40.63
2018-11-27T05:12:53.888Z,40.48
2018-11-27T05:15:23.636Z,36.98
2018-11-27T05:18:11.253Z,34.43
2018-11-27T05:20:39.776Z,39.20
2018-11-27T05:23:27.582Z,40.92
2018-11-27T05:25:55.670Z,39.45
2018-11-27T05:28:23.781Z,46.15
2018-11-27T05:30:51.917Z,43.35
2018-11-27T05:33:19.971Z,41.50
2018-11-27T05:35:48.168Z,38.40
2018-11-27T05:38:16.106Z,45.00
2018-11-27T05:40:44.175Z,38.65
2018-11-27T05:43:12.239Z,46.13
2018-11-27T05:45:40.728Z,49.40
2018-11-27T05:48:08.788Z,46.08
2018-11-27T05:50:36.898Z,49.23
2018-11-27T05:53:05.976Z,43.00
2018-11-27T05:55:34.088Z,40.65
2018-11-27T05:58:02.177Z,51.35
2018-11-27T06:00:30.667Z,43.40
2018-11-27T06:03:00.400Z,48.35
2018-11-27T06:05:28.473Z,48.30
2018-11-27T06:07:56.551Z,34.85
2018-11-27T06:10:25.060Z,47.48
2018-11-27T06:12:53.174Z,49.38
2018-11-27T06:15:22.619Z,55.35
2018-11-27T06:18:10.848Z,53.60
2018-11-27T06:20:38.925Z,49.42
2018-11-27T06:23:07.011Z,52.30
2018-11-27T06:25:35.086Z,62.00
2018-11-27T06:28:04.680Z,44.98
2018-11-27T06:30:34.301Z,61.92
2018-11-27T06:33:02.896Z,45.23
2018-11-27T06:35:50.435Z,48.10
2018-11-27T06:38:18.933Z,48.87
2018-11-27T06:40:47.131Z,79.95
2018-11-27T06:43:15.179Z,59.50
2018-11-27T06:45:43.878Z,42.25
2018-11-27T06:48:11.978Z,66.70
2018-11-27T06:50:40.442Z,44.63
2018-11-27T06:53:08.588Z,50.28
2018-11-27T06:55:36.832Z,61.37
2018-11-27T06:58:06.206Z,65.10
2018-11-27T07:00:34.280Z,53.00
2018-11-27T07:03:02.332Z,62.05
2018-11-27T07:05:30.396Z,54.38
2018-11-27T07:07:58.452Z,55.92
2018-11-27T07:10:46.130Z,48.42
2018-11-27T07:13:15.964Z,52.33
2018-11-27T07:15:44.053Z,58.15
2018-11-27T07:18:12.122Z,43.78
2018-11-27T07:20:40.619Z,52.88
2018-11-27T07:23:08.684Z,45.25
2018-11-27T07:25:37.442Z,53.13
2018-11-27T07:28:05.816Z,53.00
2018-11-27T07:30:33.898Z,53.98
2018-11-27T07:33:01.978Z,45.00
2018-11-27T07:35:30.032Z,51.08
2018-11-27T07:37:58.082Z,52.33
2018-11-27T07:40:27.925Z,52.85
2018-11-27T07:43:15.487Z,45.95
2018-11-27T07:45:43.534Z,49.45
2018-11-27T07:48:11.575Z,49.03
2018-11-27T07:50:39.640Z,52.27
2018-11-27T07:53:07.808Z,65.40
2018-11-27T07:55:35.872Z,49.73
2018-11-27T07:58:05.012Z,54.98
2018-11-27T08:00:33.065Z,49.40
2018-11-27T08:03:01.203Z,44.50
2018-11-27T08:05:49.846Z,55.20
2018-11-27T08:08:19.031Z,68.07
2018-11-27T08:10:48.307Z,48.65
2018-11-27T08:13:16.379Z,41.00
2018-11-27T08:15:44.543Z,55.85
2018-11-27T08:18:12.995Z,45.08
2018-11-27T08:20:41.151Z,46.28
2018-11-27T08:23:10.509Z,49.63
2018-11-27T08:25:38.571Z,48.33
2018-11-27T08:28:07.361Z,57.20
2018-11-27T08:30:35.448Z,46.83
2018-11-27T08:33:03.505Z,59.85
2018-11-27T08:35:31.555Z,57.35
2018-11-27T08:38:01.003Z,56.68
2018-11-27T08:40:49.250Z,55.60
2018-11-27T08:43:17.439Z,53.35
2018-11-27T08:45:45.480Z,46.65
2018-11-27T08:48:13.553Z,50.55
2018-11-27T08:50:41.631Z,50.33
2018-11-27T08:53:09.718Z,50.67
2018-11-27T08:55:57.256Z,44.73
2018-11-27T08:58:25.337Z,60.45
2018-11-27T09:00:53.413Z,46.63
2018-11-27T09:03:21.496Z,45.63
2018-11-27T09:05:49.556Z,48.17
2018-11-27T09:08:17.650Z,49.93
2018-11-27T09:10:45.705Z,50.85
2018-11-27T09:13:14.075Z,54.38
2018-11-27T09:15:41.868Z,46.48
2018-11-27T09:18:29.397Z,53.75
2018-11-27T09:20:57.516Z,55.08
2018-11-27T09:23:25.609Z,53.63
2018-11-27T09:25:53.683Z,55.23
2018-11-27T09:28:21.818Z,60.60
2018-11-27T09:30:49.869Z,49.42
2018-11-27T09:33:18.339Z,43.75
2018-11-27T09:35:46.386Z,53.35
2018-11-27T09:38:14.517Z,45.73
2018-11-27T09:40:42.579Z,52.65
2018-11-27T09:43:11.118Z,57.13
2018-11-27T09:45:41.033Z,47.90
2018-11-27T09:48:09.087Z,50.63
2018-11-27T09:50:37.162Z,61.60
2018-11-27T09:53:06.852Z,62.65
2018-11-27T09:55:34.907Z,50.78
2018-11-27T09:58:02.989Z,64.05
2018-11-27T10:00:32.431Z,55.43
2018-11-27T10:03:20.911Z,60.88
2018-11-27T10:05:49.000Z,48.23
2018-11-27T10:08:17.052Z,60.48
2018-11-27T10:10:45.126Z,70.78
2018-11-27T10:13:13.173Z,52.70
2018-11-27T10:15:41.235Z,61.80
2018-11-27T10:18:09.732Z,65.90
2018-11-27T10:20:39.184Z,59.58
2018-11-27T10:23:26.746Z,59.10
2018-11-27T10:25:54.831Z,60.03
2018-11-27T10:28:22.885Z,47.38
2018-11-27T10:30:50.951Z,52.43
2018-11-27T10:33:19.040Z,52.20
2018-11-27T10:36:06.528Z,67.67
2018-11-27T10:38:34.614Z,61.95
2018-11-27T10:41:02.678Z,59.18
2018-11-27T10:43:30.782Z,64.80
2018-11-27T10:45:58.815Z,73.12
2018-11-27T10:48:26.967Z,60.35
2018-11-27T10:50:54.981Z,59.15
2018-11-27T10:53:23.099Z,81.60
2018-11-27T10:55:51.150Z,54.05
2018-11-27T10:58:19.235Z,72.42
2018-11-27T11:01:06.414Z,65.45
2018-11-27T11:03:37.516Z,67.20
2018-11-27T11:06:25.048Z,65.00
2018-11-27T11:08:53.629Z,87.15
2018-11-27T11:11:21.744Z,54.65
2018-11-27T11:13:49.833Z,55.23
2018-11-27T11:16:17.906Z,68.95
2018-11-27T11:18:46.020Z,54.15
2018-11-27T11:21:14.411Z,50.35
2018-11-27T11:23:42.474Z,55.70
2018-11-27T11:26:10.562Z,39.67
2018-11-27T11:28:38.640Z,74.10
2018-11-27T11:31:07.079Z,49.45
2018-11-27T11:33:35.231Z,57.67
2018-11-27T11:36:03.309Z,55.17
2018-11-27T11:38:31.374Z,53.70
2018-11-27T11:40:59.493Z,53.25
2018-11-27T11:43:27.558Z,46.08
2018-11-27T11:45:55.620Z,32.40
2018-11-27T11:48:23.699Z,43.48
2018-11-27T11:50:51.750Z,55.60
2018-11-27T11:53:19.918Z,36.48
2018-11-27T11:55:48.662Z,48.75
2018-11-27T11:58:17.409Z,45.43
2018-11-27T12:00:48.205Z,45.85
2018-11-27T12:03:16.283Z,56.20
2018-11-27T12:05:44.805Z,42.78
2018-11-27T12:08:13.136Z,47.20
2018-11-27T12:10:41.205Z,51.25
2018-11-27T12:13:10.427Z,50.75
2018-11-27T12:15:38.914Z,56.15
2018-11-27T12:18:08.107Z,47.20
2018-11-27T12:20:36.222Z,50.90
2018-11-27T12:23:05.348Z,56.48
2018-11-27T12:25:33.403Z,41.85
2018-11-27T12:28:01.480Z,48.52
2018-11-27T12:30:29.587Z,56.48
2018-11-27T12:32:57.620Z,46.73
2018-11-27T12:35:25.684Z,43.90
2018-11-27T12:37:53.830Z,50.05
2018-11-27T12:40:23.115Z,53.02
2018-11-27T12:42:51.458Z,41.85
2018-11-27T12:45:39.019Z,41.37
2018-11-27T12:48:07.081Z,38.20
2018-11-27T12:50:40.171Z,50.05
2018-11-27T12:53:09.662Z,54.00
2018-11-27T12:55:39.376Z,39.70
2018-11-27T12:58:07.883Z,48.70
2018-11-27T13:00:36.080Z,49.88
2018-11-27T13:03:04.542Z,45.67
2018-11-27T13:05:52.445Z,42.90
2018-11-27T13:08:22.099Z,46.50
2018-11-27T13:10:50.187Z,52.88
2018-11-27T13:13:18.265Z,45.10
2018-11-27T13:15:46.368Z,55.28
2018-11-27T13:18:14.792Z,46.25
2018-11-27T13:20:42.895Z,64.42
2018-11-27T13:23:10.992Z,66.00
2018-11-27T13:25:39.391Z,51.58
2018-11-27T13:28:09.180Z,50.20
2018-11-27T13:30:57.628Z,55.50
2018-11-27T13:33:46.040Z,51.85
2018-11-27T13:36:14.167Z,54.60
2018-11-27T13:38:42.281Z,50.92
2018-11-27T13:41:10.404Z,53.63
2018-11-27T13:43:38.566Z,53.23
2018-11-27T13:46:08.088Z,50.08
2018-11-27T13:48:36.202Z,63.48
2018-11-27T13:51:04.265Z,49.33
2018-11-27T13:53:32.331Z,55.15
2018-11-27T13:56:00.417Z,55.70
2018-11-27T13:58:28.941Z,109.37
2018-11-27T14:00:57.459Z,69.05
2018-11-27T14:03:25.516Z,72.82
2018-11-27T14:05:54.109Z,64.58
2018-11-27T14:08:22.188Z,45.55
2018-11-27T14:10:50.273Z,43.65
2018-11-27T14:13:18.367Z,59.42
2018-11-27T14:15:46.455Z,55.92
2018-11-27T14:18:14.511Z,56.70
2018-11-27T14:20:42.617Z,49.33
2018-11-27T14:23:10.662Z,60.17
2018-11-27T14:25:38.746Z,59.45
2018-11-27T14:28:07.213Z,59.27
2018-11-27T14:30:35.761Z,45.05
2018-11-27T14:33:03.863Z,54.93
2018-11-27T14:35:32.348Z,53.08
2018-11-27T14:38:00.457Z,39.75
2018-11-27T14:40:28.556Z,50.10
2018-11-27T14:42:56.626Z,42.55
2018-11-27T14:45:26.124Z,47.93
2018-11-27T14:47:58.585Z,42.70
2018-11-27T14:50:27.079Z,52.85
2018-11-27T14:52:55.191Z,52.25
2018-11-27T14:55:42.975Z,55.33
2018-11-27T14:58:14.976Z,52.13
2018-11-27T15:00:39.147Z,42.30
2018-11-27T15:03:07.245Z,49.55
2018-11-27T15:05:36.596Z,45.48
2018-11-27T15:08:24.685Z,48.65
2018-11-27T15:10:53.118Z,57.95
2018-11-27T15:13:21.254Z,70.42
2018-11-27T15:15:49.508Z,68.07
2018-11-27T15:18:18.013Z,53.13
2018-11-27T15:20:46.020Z,59.45
2018-11-27T15:23:14.114Z,59.67
2018-11-27T15:25:42.166Z,49.15
2018-11-27T15:28:10.251Z,56.60
2018-11-27T15:30:38.953Z,47.05
2018-11-27T15:33:08.077Z,48.42
2018-11-27T15:35:37.130Z,50.63
2018-11-27T15:38:05.393Z,43.80
2018-11-27T15:40:33.471Z,50.80
2018-11-27T15:43:01.595Z,50.20
2018-11-27T15:45:39.084Z,54.38
2018-11-27T15:48:08.675Z,42.20
2018-11-27T15:50:36.805Z,53.65
2018-11-27T15:53:05.306Z,50.23
2018-11-27T15:55:34.912Z,49.90
2018-11-27T15:58:22.487Z,46.92
2018-11-27T16:00:50.639Z,57.27
2018-11-27T16:03:18.743Z,51.35
2018-11-27T16:05:46.944Z,54.45
2018-11-27T16:08:15.429Z,54.98
2018-11-27T16:10:43.559Z,48.23
2018-11-27T16:13:12.363Z,39.90
2018-11-27T16:15:40.467Z,48.65
2018-11-27T16:18:08.625Z,42.75
2018-11-27T16:20:36.702Z,39.23
2018-11-27T16:23:04.884Z,44.53
2018-11-27T16:25:32.968Z,39.55
2018-11-27T16:28:01.049Z,41.55
2018-11-27T16:30:30.079Z,42.95
2018-11-27T16:32:58.572Z,42.35
2018-11-27T16:35:26.666Z,49.13
2018-11-27T16:37:55.899Z,45.73
2018-11-27T16:40:43.415Z,35.98
2018-11-27T16:43:11.509Z,40.15
2018-11-27T16:45:39.601Z,50.43
2018-11-27T16:48:07.767Z,35.60
2018-11-27T16:50:36.086Z,33.90
2018-11-27T16:53:04.219Z,44.10
2018-11-27T16:55:32.311Z,35.08
2018-11-27T16:58:00.385Z,35.45
2018-11-27T17:00:47.963Z,35.50
2018-11-27T17:03:16.403Z,36.63
2018-11-27T17:05:45.026Z,35.73
2018-11-27T17:08:13.133Z,38.13
2018-11-27T17:10:44.810Z,35.50
2018-11-27T17:13:14.284Z,34.38
2018-11-27T17:15:42.707Z,36.08
2018-11-27T17:18:11.484Z,33.42
2018-11-27T17:20:41.236Z,49.40
2018-11-27T17:23:13.710Z,45.95
2018-11-27T17:25:41.897Z,43.35
2018-11-27T17:28:30.195Z,34.40
2018-11-27T17:31:17.729Z,40.58
2018-11-27T17:34:24.647Z,40.67
2018-11-27T17:36:52.723Z,47.33
2018-11-27T17:39:20.813Z,34.50
2018-11-27T17:41:49.287Z,43.90
2018-11-27T17:44:17.624Z,31.95
2018-11-27T17:46:45.668Z,40.83
2018-11-27T17:49:14.572Z,35.83
2018-11-27T17:51:42.628Z,29.32
2018-11-27T17:54:11.135Z,32.42
2018-11-27T17:56:39.221Z,36.77
2018-11-27T17:59:07.737Z,27.93
2018-11-27T18:01:36.195Z,32.88
2018-11-27T18:04:04.286Z,29.45
2018-11-27T18:06:32.399Z,42.45
2018-11-27T18:09:00.858Z,31.95
2018-11-27T18:11:28.925Z,41.15
2018-11-27T18:13:57.041Z,37.80
2018-11-27T18:16:25.113Z,41.28
2018-11-27T18:18:53.189Z,32.05
2018-11-27T18:21:21.270Z,31.62
2018-11-27T18:23:49.409Z,44.75
2018-11-27T18:26:17.560Z,34.45
2018-11-27T18:28:45.584Z,32.13
2018-11-27T18:31:13.950Z,44.30
2018-11-27T18:33:42.004Z,30.62
2018-11-27T18:36:10.080Z,28.73
2018-11-27T18:38:38.226Z,35.63
2018-11-27T18:41:06.729Z,37.50
2018-11-27T18:43:34.781Z,67.78
2018-11-27T18:46:02.861Z,60.78
2018-11-27T18:48:30.947Z,50.60
2018-11-27T18:50:59.023Z,52.95
2018-11-27T18:53:27.125Z,39.15
2018-11-27T18:55:55.287Z,31.75
2018-11-27T18:58:23.401Z,35.40
2018-11-27T19:00:51.476Z,33.85
2018-11-27T19:03:19.965Z,31.85
2018-11-27T19:05:48.026Z,29.42
2018-11-27T19:08:16.114Z,36.10
2018-11-27T19:10:44.176Z,32.80
2018-11-27T19:13:12.233Z,23.60
2018-11-27T19:16:00.601Z,30.30
2018-11-27T19:18:28.700Z,29.52
2018-11-27T19:20:56.803Z,27.42
2018-11-27T19:23:26.058Z,32.17
2018-11-27T19:25:54.138Z,36.15
2018-11-27T19:28:22.276Z,30.27
2018-11-27T19:30:51.087Z,28.40
2018-11-27T19:33:19.155Z,37.20
2018-11-27T19:35:47.215Z,33.67
2018-11-27T19:38:16.840Z,42.40
2018-11-27T19:40:44.934Z,46.53
2018-11-27T19:43:13.014Z,46.40
2018-11-27T19:45:41.106Z,52.45
2018-11-27T19:48:10.269Z,34.73
2018-11-27T19:50:38.355Z,38.67
2018-11-27T19:53:27.201Z,35.38
2018-11-27T19:55:55.323Z,31.95
2018-11-27T19:58:23.390Z,21.73
2018-11-27T20:00:51.469Z,29.65
2018-11-27T20:03:19.671Z,30.97
2018-11-27T20:05:47.727Z,27.52
2018-11-27T20:08:16.833Z,46.45
2018-11-27T20:10:44.889Z,37.95
2018-11-27T20:13:13.034Z,38.50
2018-11-27T20:15:41.612Z,44.85
2018-11-27T20:18:10.500Z,31.05
2018-11-27T20:20:38.946Z,30.37
2018-11-27T20:23:07.043Z,38.55
2018-11-27T20:25:36.025Z,34.05
2018-11-27T20:28:04.088Z,36.53
2018-11-27T20:30:32.153Z,29.52
2018-11-27T20:33:02.051Z,32.00
2018-11-27T20:35:30.862Z,32.45
2018-11-27T20:38:00.268Z,44.10
2018-11-27T20:40:28.398Z,31.05
2018-11-27T20:42:56.543Z,35.90
2018-11-27T20:45:25.910Z,29.60
2018-11-27T20:48:32.839Z,35.90
2018-11-27T20:51:00.957Z,32.03
2018-11-27T20:53:29.056Z,39.45
2018-11-27T20:55:57.177Z,38.25
2018-11-27T20:58:44.717Z,39.10
2018-11-27T21:01:12.800Z,34.40
2018-11-27T21:03:40.873Z,44.45
2018-11-27T21:06:09.392Z,45.30
2018-11-27T21:08:37.463Z,39.42
2018-11-27T21:11:08.338Z,27.87
2018-11-27T21:13:34.021Z,33.92
2018-11-27T21:16:02.088Z,31.65
2018-11-27T21:18:30.539Z,31.07
2018-11-27T21:20:58.689Z,34.43
2018-11-27T21:23:26.799Z,33.70
2018-11-27T21:26:04.613Z,38.60
2018-11-27T21:28:33.905Z,33.63
2018-11-27T21:31:02.200Z,46.80
2018-11-27T21:33:30.240Z,36.25
2018-11-27T21:35:59.281Z,40.50
2018-11-27T21:38:27.365Z,39.65
2018-11-27T21:40:56.278Z,33.20
2018-11-27T21:43:24.412Z,32.05
2018-11-27T21:45:52.505Z,44.42
2018-11-27T21:48:20.867Z,31.20
2018-11-27T21:51:00.483Z,39.78
2018-11-27T21:53:29.093Z,36.28
2018-11-27T21:55:57.153Z,38.10
2018-11-27T21:58:25.690Z,43.30
2018-11-27T22:00:53.749Z,30.15
2018-11-27T22:03:21.891Z,36.83
2018-11-27T22:05:49.903Z,32.83
2018-11-27T22:08:17.991Z,39.67
2018-11-27T22:10:46.491Z,33.02
2018-11-27T22:13:15.105Z,35.10
2018-11-27T22:15:44.484Z,41.02
2018-11-27T22:18:13.481Z,36.95
2018-11-27T22:20:41.728Z,37.88
2018-11-27T22:23:10.086Z,31.30
2018-11-27T22:25:38.333Z,31.87
2018-11-27T22:28:07.452Z,31.48
2018-11-27T22:30:36.043Z,39.80
2018-11-27T22:33:05.762Z,26.42
2018-11-27T22:35:34.066Z,51.25
2018-11-27T22:38:02.163Z,35.38
2018-11-27T22:40:30.324Z,40.33
2018-11-27T22:42:58.309Z,43.15
2018-11-27T22:45:30.728Z,40.38
2018-11-27T22:47:59.209Z,37.98
2018-11-27T22:50:27.713Z,36.28
2018-11-27T22:52:55.772Z,44.27
2018-11-27T22:55:23.849Z,37.33
2018-11-27T22:57:52.139Z,37.93
2018-11-27T23:00:58.806Z,38.78
2018-11-27T23:03:26.920Z,40.55
2018-11-27T23:05:54.988Z,36.70
2018-11-27T23:08:23.106Z,39.78
2018-11-27T23:10:51.550Z,44.45
2018-11-27T23:13:19.649Z,46.13
2018-11-27T23:15:47.723Z,48.28
2018-11-27T23:18:15.795Z,43.85
2018-11-27T23:20:44.041Z,48.95
2018-11-27T23:23:12.123Z,37.48
2018-11-27T23:25:40.605Z,45.50
2018-11-27T23:28:08.684Z,44.60
2018-11-27T23:30:36.742Z,44.80
2018-11-27T23:33:05.084Z,37.53
2018-11-27T23:35:33.166Z,42.90
2018-11-27T23:38:01.265Z,39.92
2018-11-27T23:40:31.443Z,44.98
2018-11-27T23:43:00.286Z,50.48
2018-11-27T23:45:28.726Z,45.88
2018-11-27T23:47:56.872Z,40.12
2018-11-27T23:50:24.929Z,45.83
2018-11-27T23:52:53.266Z,46.68
2018-11-27T23:55:21.778Z,47.53
2018-11-27T23:57:49.883Z,57.08
